createdAt,value
2023-02-07T00:01:35.667Z,11.43
2023-02-07T00:04:04.432Z,11.20
2023-02-07T00:06:36.766Z,11.27
2023-02-07T00:09:08.013Z,8.25
2023-02-07T00:11:40.290Z,9.48
2023-02-07T00:14:10.435Z,9.07
2023-02-07T00:16:39.460Z,9.88
2023-02-07T00:19:07.864Z,8.80
2023-02-07T00:21:37.575Z,10.05
2023-02-07T00:24:06.714Z,9.93
2023-02-07T00:26:35.061Z,10.50
2023-02-07T00:29:03.291Z,11.27
2023-02-07T00:31:33.614Z,8.90
2023-02-07T00:34:05.197Z,10.02
2023-02-07T00:36:35.572Z,11.15
2023-02-07T00:39:08.031Z,9.45
2023-02-07T00:41:36.414Z,9.82
2023-02-07T00:44:05.518Z,11.23
2023-02-07T00:46:34.107Z,11.85
2023-02-07T00:49:02.777Z,9.00
2023-02-07T00:51:31.088Z,9.07
2023-02-07T00:53:59.434Z,9.98
2023-02-07T00:56:30.628Z,10.90
2023-02-07T00:58:59.082Z,8.23
2023-02-07T01:01:28.664Z,9.43
2023-02-07T01:03:56.920Z,12.05
2023-02-07T01:06:25.979Z,10.80
2023-02-07T01:08:58.696Z,10.20
2023-02-07T01:11:29.092Z,14.05
2023-02-07T01:13:59.217Z,8.13
2023-02-07T01:16:29.292Z,9.02
2023-02-07T01:18:57.744Z,9.15
2023-02-07T01:21:27.237Z,13.05
2023-02-07T01:23:56.859Z,9.02
2023-02-07T01:26:25.946Z,9.55
2023-02-07T01:28:57.146Z,12.82
2023-02-07T01:31:25.834Z,8.52
2023-02-07T01:33:58.730Z,11.57
2023-02-07T01:36:28.463Z,12.95
2023-02-07T01:38:57.439Z,12.18
2023-02-07T01:41:27.394Z,9.30
2023-02-07T01:44:29.639Z,9.00
2023-02-07T01:46:58.820Z,8.57
2023-02-07T01:49:30.924Z,9.63
2023-02-07T01:52:02.339Z,11.75
2023-02-07T01:54:33.687Z,9.23
2023-02-07T01:57:07.753Z,9.25
2023-02-07T01:59:44.098Z,14.60
2023-02-07T02:02:13.441Z,8.93
2023-02-07T02:04:42.625Z,9.82
2023-02-07T02:07:13.271Z,9.70
2023-02-07T02:09:41.666Z,11.65
2023-02-07T02:16:03.569Z,7.68
2023-02-07T02:18:56.191Z,9.35
2023-02-07T02:22:14.929Z,11.05
2023-02-07T02:25:26.296Z,10.93
2023-02-07T02:28:31.658Z,11.23
2023-02-07T02:31:34.312Z,8.15
2023-02-07T02:34:08.471Z,9.00
2023-02-07T02:36:47.122Z,8.50
2023-02-07T02:39:23.003Z,7.75
2023-02-07T02:42:00.577Z,8.10
2023-02-07T02:44:33.629Z,8.48
2023-02-07T02:47:04.180Z,10.05
2023-02-07T02:49:35.741Z,9.77
2023-02-07T02:52:04.251Z,8.60
2023-02-07T02:54:34.560Z,9.63
2023-02-07T02:57:39.554Z,8.65
2023-02-07T03:00:19.791Z,8.32
2023-02-07T03:02:58.579Z,13.40
2023-02-07T03:05:41.905Z,12.00
2023-02-07T03:08:21.209Z,11.00
2023-02-07T03:10:57.423Z,13.25
2023-02-07T03:13:29.888Z,11.65
2023-02-07T03:16:11.435Z,10.93
2023-02-07T03:18:48.226Z,11.68
2023-02-07T03:21:23.201Z,10.70
2023-02-07T03:23:52.967Z,15.05
2023-02-07T03:26:22.923Z,12.93
2023-02-07T03:28:53.077Z,14.77
2023-02-07T03:31:25.242Z,15.80
2023-02-07T03:33:59.996Z,12.13
2023-02-07T03:36:33.188Z,13.63
2023-02-07T03:39:01.733Z,20.73
2023-02-07T03:41:35.667Z,16.25
2023-02-07T03:44:07.292Z,12.63
2023-02-07T03:46:38.064Z,10.00
2023-02-07T03:49:07.804Z,12.27
2023-02-07T03:51:38.078Z,12.93
2023-02-07T03:54:06.317Z,13.20
2023-02-07T03:56:34.727Z,12.85
2023-02-07T03:59:02.950Z,15.20
2023-02-07T04:01:31.560Z,12.02
2023-02-07T04:04:00.110Z,12.82
2023-02-07T04:06:28.211Z,10.95
2023-02-07T04:08:57.973Z,13.20
2023-02-07T04:11:26.223Z,15.52
2023-02-07T04:13:54.450Z,15.40
2023-02-07T04:16:22.816Z,13.07
2023-02-07T04:18:50.994Z,11.73
2023-02-07T04:21:19.296Z,11.20
2023-02-07T04:23:47.676Z,10.68
2023-02-07T04:26:17.462Z,12.18
2023-02-07T04:28:45.809Z,10.35
2023-02-07T04:31:14.084Z,17.20
2023-02-07T04:33:42.337Z,15.75
2023-02-07T04:36:11.378Z,14.25
2023-02-07T04:38:39.559Z,11.20
2023-02-07T04:41:08.328Z,13.43
2023-02-07T04:43:39.007Z,20.02
2023-02-07T04:46:08.732Z,13.25
2023-02-07T04:48:38.681Z,13.77
2023-02-07T04:51:07.848Z,13.65
2023-02-07T04:53:36.610Z,16.20
2023-02-07T04:56:05.070Z,14.95
2023-02-07T04:58:33.504Z,15.88
2023-02-07T05:01:03.203Z,17.02
2023-02-07T05:03:31.560Z,15.32
2023-02-07T05:05:59.875Z,17.33
2023-02-07T05:08:28.228Z,14.68
2023-02-07T05:10:57.268Z,14.88
2023-02-07T05:13:26.522Z,14.68
2023-02-07T05:15:54.783Z,14.00
2023-02-07T05:18:24.852Z,15.88
2023-02-07T05:20:54.641Z,11.27
2023-02-07T05:23:22.843Z,17.15
2023-02-07T05:25:51.221Z,18.77
2023-02-07T05:28:19.796Z,17.55
2023-02-07T05:30:48.176Z,15.75
2023-02-07T05:33:15.418Z,17.45
2023-02-07T05:35:46.280Z,19.40
2023-02-07T05:38:16.923Z,23.67
2023-02-07T05:40:46.157Z,17.40
2023-02-07T05:43:14.764Z,19.90
2023-02-07T05:45:42.977Z,17.77
2023-02-07T05:48:11.354Z,13.75
2023-02-07T05:50:40.058Z,19.23
2023-02-07T05:53:10.587Z,18.98
2023-02-07T05:55:39.183Z,12.73
2023-02-07T05:58:07.642Z,15.10
2023-02-07T06:00:35.931Z,16.67
2023-02-07T06:03:04.204Z,15.50
2023-02-07T06:05:33.320Z,16.05
2023-02-07T06:08:01.635Z,14.70
2023-02-07T06:10:31.267Z,14.15
2023-02-07T06:12:59.520Z,14.68
2023-02-07T06:15:28.341Z,13.95
2023-02-07T06:17:56.604Z,12.77
2023-02-07T06:20:25.081Z,16.85
2023-02-07T06:22:53.635Z,14.57
2023-02-07T06:25:22.047Z,17.23
2023-02-07T06:27:51.620Z,15.00
2023-02-07T06:30:20.144Z,13.73
2023-02-07T06:32:48.414Z,12.48
2023-02-07T06:35:16.775Z,16.40
2023-02-07T06:37:44.952Z,14.63
2023-02-07T06:40:13.381Z,12.10
2023-02-07T06:42:41.580Z,15.45
2023-02-07T06:45:11.689Z,14.05
2023-02-07T06:47:39.937Z,15.05
2023-02-07T06:50:09.322Z,13.93
2023-02-07T06:52:37.605Z,12.90
2023-02-07T06:55:06.353Z,15.68
2023-02-07T06:57:34.675Z,16.55
2023-02-07T07:00:03.139Z,16.95
2023-02-07T07:02:33.194Z,15.15
2023-02-07T07:05:01.439Z,14.90
2023-02-07T07:07:29.919Z,16.17
2023-02-07T07:09:58.162Z,16.60
2023-02-07T07:12:26.539Z,16.10
2023-02-07T07:14:54.834Z,15.95
2023-02-07T07:17:23.371Z,16.30
2023-02-07T07:19:53.460Z,18.15
2023-02-07T07:22:22.138Z,17.10
2023-02-07T07:24:50.353Z,17.48
2023-02-07T07:27:18.615Z,15.85
2023-02-07T07:29:47.215Z,16.58
2023-02-07T07:32:28.707Z,17.30
2023-02-07T07:35:02.926Z,17.38
2023-02-07T07:37:31.472Z,17.83
2023-02-07T07:39:59.900Z,18.58
2023-02-07T07:42:28.457Z,18.75
2023-02-07T07:44:56.688Z,18.40
2023-02-07T07:47:25.422Z,17.02
2023-02-07T07:49:54.152Z,17.65
2023-02-07T07:52:23.900Z,16.48
2023-02-07T07:54:52.062Z,17.67
2023-02-07T07:57:21.319Z,18.50
2023-02-07T07:59:49.846Z,19.60
2023-02-07T08:02:18.165Z,17.33
2023-02-07T08:04:46.493Z,18.45
2023-02-07T08:07:14.791Z,19.42
2023-02-07T08:09:44.547Z,20.33
2023-02-07T08:12:13.094Z,18.65
2023-02-07T08:14:41.587Z,20.55
2023-02-07T08:17:09.836Z,20.63
2023-02-07T08:19:38.498Z,22.80
2023-02-07T08:22:06.727Z,23.70
2023-02-07T08:24:36.044Z,23.23
2023-02-07T08:27:05.884Z,21.30
2023-02-07T08:29:34.193Z,23.75
2023-02-07T08:32:02.669Z,26.52
2023-02-07T08:34:37.738Z,24.70
2023-02-07T08:37:07.157Z,22.80
2023-02-07T08:39:35.806Z,24.17
2023-02-07T08:42:08.179Z,24.63
2023-02-07T08:44:36.632Z,21.42
2023-02-07T08:47:05.913Z,21.80
2023-02-07T08:49:34.125Z,23.55
2023-02-07T08:52:02.431Z,22.85
2023-02-07T08:54:31.694Z,22.48
2023-02-07T08:57:00.020Z,22.02
2023-02-07T08:59:29.615Z,22.65
2023-02-07T09:01:57.861Z,22.33
2023-02-07T09:04:27.000Z,20.75
2023-02-07T09:06:55.560Z,22.42
2023-02-07T09:09:25.185Z,21.83
2023-02-07T09:11:53.790Z,20.55
2023-02-07T09:14:22.042Z,21.15
2023-02-07T09:16:51.807Z,21.35
2023-02-07T09:19:20.431Z,20.55
2023-02-07T09:21:49.131Z,19.52
2023-02-07T09:24:20.905Z,20.70
2023-02-07T09:26:49.575Z,20.10
2023-02-07T09:29:18.143Z,19.30
2023-02-07T09:31:49.464Z,18.13
2023-02-07T09:34:20.116Z,18.95
2023-02-07T09:36:50.231Z,18.75
2023-02-07T09:39:19.023Z,18.50
2023-02-07T09:41:53.503Z,16.27
2023-02-07T09:44:26.216Z,17.25
2023-02-07T09:46:56.676Z,16.35
2023-02-07T09:49:35.599Z,15.20
2023-02-07T09:52:06.904Z,13.80
2023-02-07T09:54:40.812Z,14.15
2023-02-07T09:57:14.603Z,14.27
2023-02-07T09:59:49.243Z,14.52
2023-02-07T10:02:23.503Z,14.67
2023-02-07T10:04:58.743Z,13.05
2023-02-07T10:07:27.281Z,11.05
2023-02-07T10:09:56.482Z,11.45
2023-02-07T10:12:39.896Z,10.43
2023-02-07T10:15:19.442Z,8.68
2023-02-07T10:17:54.575Z,8.80
2023-02-07T10:20:32.080Z,9.57
2023-02-07T10:23:06.647Z,8.38
2023-02-07T10:25:44.838Z,10.65
2023-02-07T10:28:52.192Z,8.38
2023-02-07T10:31:22.846Z,9.35
2023-02-07T10:33:56.832Z,9.35
2023-02-07T10:36:29.741Z,10.15
2023-02-07T10:39:09.366Z,9.35
2023-02-07T10:41:39.592Z,7.85
2023-02-07T10:44:08.927Z,7.97
2023-02-07T10:46:39.691Z,7.70
2023-02-07T10:49:09.347Z,6.53
2023-02-07T10:51:44.294Z,5.18
2023-02-07T10:54:16.845Z,4.95
2023-02-07T10:56:46.443Z,5.57
2023-02-07T10:59:31.893Z,5.35
2023-02-07T11:02:00.670Z,5.45
2023-02-07T11:04:36.648Z,5.35
2023-02-07T11:07:08.726Z,5.82
2023-02-07T11:09:38.239Z,5.63
2023-02-07T11:12:16.669Z,5.70
2023-02-07T11:15:02.560Z,5.13
2023-02-07T11:20:05.604Z,5.50
2023-02-07T11:22:35.858Z,5.05
2023-02-07T11:25:06.758Z,5.70
2023-02-07T11:27:40.726Z,5.55
2023-02-07T11:30:15.889Z,5.47
2023-02-07T11:32:44.990Z,5.72
2023-02-07T11:35:20.429Z,5.88
2023-02-07T11:40:23.347Z,4.70
2023-02-07T11:42:52.725Z,5.13
2023-02-07T11:45:24.120Z,4.90
2023-02-07T11:47:55.118Z,5.18
2023-02-07T11:50:26.029Z,4.78
2023-02-07T11:52:56.401Z,4.82
2023-02-07T11:55:28.491Z,4.85
2023-02-07T11:57:58.918Z,5.35
2023-02-07T12:00:30.309Z,5.57
2023-02-07T12:03:03.418Z,4.53
2023-02-07T12:05:34.050Z,5.50
2023-02-07T12:08:04.284Z,4.93
2023-02-07T12:10:35.753Z,4.95
2023-02-07T12:13:06.918Z,5.30
2023-02-07T12:15:37.261Z,4.10
2023-02-07T12:18:10.626Z,5.18
2023-02-07T12:20:43.280Z,5.00
2023-02-07T12:23:40.797Z,4.38
2023-02-07T12:26:17.838Z,4.60
2023-02-07T12:29:01.294Z,5.28
2023-02-07T12:31:45.374Z,5.15
2023-02-07T12:34:21.167Z,4.95
2023-02-07T12:36:55.540Z,5.43
2023-02-07T12:39:31.439Z,5.38
2023-02-07T12:42:14.196Z,5.20
2023-02-07T12:44:48.404Z,5.05
2023-02-07T12:47:23.343Z,4.47
2023-02-07T12:50:07.685Z,5.40
2023-02-07T12:52:46.938Z,5.40
2023-02-07T12:55:27.654Z,5.53
2023-02-07T12:58:06.732Z,5.40
2023-02-07T13:00:49.125Z,5.50
2023-02-07T13:03:27.188Z,5.35
2023-02-07T13:06:05.022Z,4.95
2023-02-07T13:08:44.572Z,5.38
2023-02-07T13:11:25.783Z,4.70
2023-02-07T13:14:07.569Z,4.95
2023-02-07T13:16:42.167Z,5.50
2023-02-07T13:19:20.080Z,5.13
2023-02-07T13:21:54.227Z,5.10
2023-02-07T13:24:24.700Z,5.18
2023-02-07T13:26:55.241Z,5.50
2023-02-07T13:29:26.172Z,5.65
2023-02-07T13:31:59.266Z,5.40
2023-02-07T13:34:30.237Z,4.95
2023-02-07T13:37:05.364Z,4.97
2023-02-07T13:39:57.148Z,6.17
2023-02-07T13:42:29.987Z,6.18
2023-02-07T13:45:11.922Z,5.70
2023-02-07T13:47:55.882Z,6.53
2023-02-07T13:50:43.274Z,5.40
2023-02-07T13:53:32.579Z,5.78
2023-02-07T13:56:04.554Z,5.95
2023-02-07T13:59:09.617Z,5.13
2023-02-07T14:01:50.428Z,5.70
2023-02-07T14:04:19.721Z,6.10
2023-02-07T14:07:01.621Z,5.40
2023-02-07T14:09:33.802Z,5.63
2023-02-07T14:12:04.497Z,5.97
2023-02-07T14:14:34.438Z,5.25
2023-02-07T14:17:05.683Z,5.13
2023-02-07T14:19:50.750Z,5.43
2023-02-07T14:22:22.373Z,5.70
2023-02-07T14:25:06.969Z,6.05
2023-02-07T14:27:37.116Z,5.57
2023-02-07T14:30:30.859Z,5.00
2023-02-07T14:33:17.644Z,5.07
2023-02-07T14:36:19.038Z,5.75
2023-02-07T14:39:02.058Z,4.72
2023-02-07T14:41:32.255Z,4.43
2023-02-07T14:44:09.528Z,4.63
2023-02-07T14:46:42.069Z,5.38
2023-02-07T14:49:17.927Z,5.40
2023-02-07T14:51:49.214Z,5.32
2023-02-07T14:54:23.540Z,6.15
2023-02-07T14:57:01.462Z,4.90
2023-02-07T14:59:35.007Z,5.35
2023-02-07T15:02:29.326Z,5.47
2023-02-07T15:04:59.411Z,4.60
2023-02-07T15:07:27.673Z,5.68
2023-02-07T15:09:55.826Z,4.90
2023-02-07T15:12:28.052Z,4.75
2023-02-07T15:14:57.938Z,5.30
2023-02-07T15:17:42.662Z,4.85
2023-02-07T15:22:45.176Z,5.15
2023-02-07T15:25:15.516Z,5.13
2023-02-07T15:27:44.351Z,5.50
2023-02-07T15:30:19.125Z,5.72
2023-02-07T15:32:48.634Z,5.70
2023-02-07T15:35:21.126Z,5.55
2023-02-07T15:37:52.384Z,5.03
2023-02-07T15:40:24.920Z,5.43
2023-02-07T15:42:57.584Z,5.40
2023-02-07T15:45:27.234Z,5.13
2023-02-07T15:48:01.193Z,5.90
2023-02-07T15:50:31.920Z,5.78
2023-02-07T15:53:03.664Z,5.72
2023-02-07T15:55:35.552Z,6.57
2023-02-07T15:58:05.371Z,5.93
2023-02-07T16:00:40.487Z,5.40
2023-02-07T16:03:15.429Z,5.60
2023-02-07T16:05:43.834Z,5.70
2023-02-07T16:08:32.785Z,6.10
2023-02-07T16:11:23.865Z,5.80
2023-02-07T16:13:54.559Z,6.10
2023-02-07T16:16:27.163Z,6.68
2023-02-07T16:19:06.216Z,5.55
2023-02-07T16:21:36.647Z,6.10
2023-02-07T16:24:09.560Z,5.63
2023-02-07T16:26:38.705Z,6.13
2023-02-07T16:29:07.724Z,6.18
2023-02-07T16:31:36.772Z,5.65
2023-02-07T16:34:05.450Z,5.78
2023-02-07T16:36:33.551Z,5.18
2023-02-07T16:39:02.337Z,5.65
2023-02-07T16:41:35.295Z,5.80
2023-02-07T16:44:06.392Z,6.28
2023-02-07T16:46:35.270Z,6.18
2023-02-07T16:49:03.450Z,6.47
2023-02-07T16:51:31.633Z,6.03
2023-02-07T16:54:00.315Z,5.90
2023-02-07T16:56:29.504Z,6.15
2023-02-07T16:58:59.150Z,5.55
2023-02-07T17:01:27.258Z,5.65
2023-02-07T17:03:55.719Z,5.22
2023-02-07T17:06:25.397Z,5.75
2023-02-07T17:08:56.943Z,5.60
2023-02-07T17:11:26.841Z,5.78
2023-02-07T17:13:55.819Z,5.22
2023-02-07T17:16:27.709Z,5.10
2023-02-07T17:18:56.085Z,5.95
2023-02-07T17:21:24.337Z,5.20
2023-02-07T17:23:52.782Z,5.30
2023-02-07T17:26:24.946Z,5.80
2023-02-07T17:28:53.652Z,5.57
2023-02-07T17:31:22.741Z,5.75
2023-02-07T17:33:53.005Z,6.57
2023-02-07T17:36:22.052Z,5.90
2023-02-07T17:38:50.654Z,5.40
2023-02-07T17:41:20.126Z,5.10
2023-02-07T17:43:48.680Z,5.57
2023-02-07T17:46:18.834Z,5.03
2023-02-07T17:48:49.198Z,5.43
2023-02-07T17:51:20.207Z,6.47
2023-02-07T17:53:48.899Z,5.90
2023-02-07T17:56:22.247Z,7.30
2023-02-07T17:58:51.259Z,5.97
2023-02-07T18:01:20.278Z,5.90
2023-02-07T18:03:49.705Z,8.07
2023-02-07T18:06:22.114Z,8.40
2023-02-07T18:08:50.336Z,6.50
2023-02-07T18:11:19.171Z,8.18
2023-02-07T18:13:48.570Z,8.85
2023-02-07T18:16:18.794Z,8.20
2023-02-07T18:18:47.013Z,9.55
2023-02-07T18:21:15.684Z,7.93
2023-02-07T18:23:45.515Z,8.32
2023-02-07T18:26:16.980Z,8.90
2023-02-07T18:28:45.636Z,7.82
2023-02-07T18:31:16.472Z,7.03
2023-02-07T18:33:45.336Z,8.00
2023-02-07T18:36:14.151Z,7.47
2023-02-07T18:38:42.304Z,8.40
2023-02-07T18:41:13.744Z,8.25
2023-02-07T18:43:42.647Z,7.40
2023-02-07T18:46:12.007Z,7.28
2023-02-07T18:48:40.622Z,7.50
2023-02-07T18:51:13.759Z,7.30
2023-02-07T18:53:42.423Z,7.38
2023-02-07T18:56:15.654Z,7.47
2023-02-07T18:58:46.612Z,8.48
2023-02-07T19:01:19.200Z,7.82
2023-02-07T19:03:51.411Z,8.07
2023-02-07T19:06:19.671Z,7.85
2023-02-07T19:08:47.922Z,7.75
2023-02-07T19:11:17.645Z,7.72
2023-02-07T19:13:46.245Z,7.25
2023-02-07T19:16:16.858Z,7.63
2023-02-07T19:18:45.672Z,8.32
2023-02-07T19:21:16.144Z,8.55
2023-02-07T19:23:44.630Z,7.47
2023-02-07T19:26:12.836Z,7.07
2023-02-07T19:28:42.602Z,8.57
2023-02-07T19:31:18.096Z,8.13
2023-02-07T19:33:48.016Z,7.10
2023-02-07T19:36:17.714Z,7.95
2023-02-07T19:38:46.706Z,7.45
2023-02-07T19:41:14.919Z,7.70
2023-02-07T19:43:44.431Z,8.20
2023-02-07T19:46:12.728Z,6.68
2023-02-07T19:48:41.048Z,5.65
2023-02-07T19:51:12.734Z,7.93
2023-02-07T19:53:43.288Z,7.65
2023-02-07T19:56:13.161Z,11.07
2023-02-07T19:58:43.466Z,10.43
2023-02-07T20:01:13.925Z,10.25
2023-02-07T20:03:43.929Z,10.75
2023-02-07T20:06:13.939Z,9.07
2023-02-07T20:08:42.533Z,9.70
2023-02-07T20:11:12.536Z,10.23
2023-02-07T20:13:42.533Z,9.07
2023-02-07T20:16:15.609Z,12.30
2023-02-07T20:18:44.185Z,10.70
2023-02-07T20:21:15.864Z,9.48
2023-02-07T20:23:46.973Z,10.35
2023-02-07T20:26:17.684Z,9.60
2023-02-07T20:28:46.825Z,10.38
2023-02-07T20:31:18.511Z,9.05
2023-02-07T20:33:47.139Z,9.73
2023-02-07T20:36:17.788Z,10.07
2023-02-07T20:38:47.368Z,8.25
2023-02-07T20:41:29.200Z,8.93
2023-02-07T20:43:59.942Z,10.00
2023-02-07T20:46:30.596Z,10.32
2023-02-07T20:49:01.205Z,9.45
2023-02-07T20:51:30.625Z,8.52
2023-02-07T20:54:00.645Z,9.15
2023-02-07T20:56:31.520Z,8.32
2023-02-07T20:59:00.997Z,8.23
2023-02-07T21:01:32.567Z,8.52
2023-02-07T21:04:03.527Z,10.82
2023-02-07T21:06:32.271Z,10.82
2023-02-07T21:09:02.067Z,10.60
2023-02-07T21:11:33.887Z,9.15
2023-02-07T21:14:02.309Z,7.50
2023-02-07T21:16:32.578Z,7.95
2023-02-07T21:19:01.651Z,8.23
2023-02-07T21:21:30.150Z,8.18
2023-02-07T21:23:58.969Z,8.93
2023-02-07T21:26:28.062Z,8.65
2023-02-07T21:28:59.073Z,8.57
2023-02-07T21:31:27.684Z,8.82
2023-02-07T21:33:58.290Z,9.13
2023-02-07T21:36:28.122Z,11.65
2023-02-07T21:38:59.463Z,10.57
2023-02-07T21:41:30.198Z,12.10
2023-02-07T21:43:59.692Z,12.40
2023-02-07T21:46:30.278Z,11.40
2023-02-07T21:49:02.595Z,11.35
2023-02-07T21:51:32.847Z,11.88
2023-02-07T21:54:02.533Z,12.50
2023-02-07T21:56:34.291Z,10.82
2023-02-07T21:59:04.151Z,11.13
2023-02-07T22:01:33.773Z,11.73
2023-02-07T22:04:04.739Z,13.02
2023-02-07T22:06:33.317Z,9.50
2023-02-07T22:09:04.853Z,10.30
2023-02-07T22:11:36.009Z,10.10
2023-02-07T22:14:05.744Z,10.10
2023-02-07T22:16:34.948Z,11.98
2023-02-07T22:19:07.355Z,13.32
2023-02-07T22:21:37.343Z,10.32
2023-02-07T22:24:07.723Z,10.00
2023-02-07T22:26:36.284Z,10.00
2023-02-07T22:29:05.534Z,9.85
2023-02-07T22:31:36.042Z,9.65
2023-02-07T22:34:07.337Z,10.88
2023-02-07T22:36:37.885Z,12.68
2023-02-07T22:39:08.936Z,12.43
2023-02-07T22:41:37.821Z,14.63
2023-02-07T22:44:06.423Z,13.50
2023-02-07T22:46:34.753Z,12.98
2023-02-07T22:49:03.063Z,12.40
2023-02-07T22:51:34.619Z,11.15
2023-02-07T22:54:05.735Z,16.67
2023-02-07T22:56:34.702Z,14.55
2023-02-07T22:59:03.197Z,12.52
2023-02-07T23:01:34.443Z,11.00
2023-02-07T23:04:03.660Z,11.95
2023-02-07T23:06:33.646Z,17.50
2023-02-07T23:09:02.109Z,17.10
2023-02-07T23:11:30.340Z,14.32
2023-02-07T23:13:58.725Z,11.70
2023-02-07T23:16:28.619Z,11.85
2023-02-07T23:18:58.548Z,15.68
2023-02-07T23:21:27.953Z,13.73
2023-02-07T23:23:59.048Z,10.50
2023-02-07T23:26:28.284Z,12.48
2023-02-07T23:28:56.546Z,10.55
2023-02-07T23:31:26.306Z,12.43
2023-02-07T23:33:55.093Z,12.88
2023-02-07T23:36:23.789Z,12.32
2023-02-07T23:38:52.421Z,11.27
2023-02-07T23:41:22.033Z,12.85
2023-02-07T23:43:50.308Z,11.35
2023-02-07T23:46:19.083Z,11.13
2023-02-07T23:48:47.444Z,13.07
2023-02-07T23:51:16.572Z,12.65
2023-02-07T23:53:45.345Z,14.88
2023-02-07T23:56:17.464Z,11.60
2023-02-07T23:58:48.295Z,10.48
